Etusivu
METAR-TAF:

METAR-TAF

Lentoasemat :

Lyndonville, Vermont, Yhdysvallat

Leveyspiiri: 44-34-09N, Pituuspiiri: 072-01-05W, korkeus merenpinnasta: 362 m

Tämänhetkinen sää

Tämä raportti tehtiin 15 minuuttia sitten, kello 03.37 UTC
Tuuli 7 kn pohjoisesta/koillisesta
Lämpötila 8°C
Kosteus 87%
Ilmanpaine 1002 hPa
Näkyvyys: 11.3 km
Hajanaisia pilviä 1900 ft:n korkeudessa
Hajanaisia pilviä 3000 ft:n korkeudessa
Pilvistä 5000 ft:n korkeudessa
heikkoa lumisadetta

METAR: KCDA 170337Z AUTO 03007KT 7SM -SN SCT019 SCT030 OVC050 08/06 A2959 RMK AO2 T00750061

Aika: 23:52 (03:52 UTC)


TAF: puuttuu

Säähavainnot ja -ennusteet yli 4000 lentoasemalta (METAR- ja TAF-raportit).

Käytössä olevat sääasemat on merkitty karttaan keltaisilla ja punaisilla pisteillä.

Aseta hiiri pisteen päälle nähdäksesi sääaseman nimen.

Klikkaa sitten nähdäksesi säähavainnot ja -ennusteet.

Kartan vaihtaminen: klikkaa mustalla rastilla varustettuja vihreitä pisteitä, niin voit zoomata sisään; viivalla varustettua vihreää pistettä, niin voit zoomata ulos tai vihreitä nuolia, niin pääset viereisille kartoille.


METAR-TAF: